sensor_id;sensor_type;location;lat;lon;timestamp;pressure;altitude;pressure_sealevel;temperature;humidity
16461;BME280;8341;42.048;24.650;2023-02-28T00:01:13;97704.94;;;11.74;61.42
16461;BME280;8341;42.048;24.650;2023-02-28T00:03:41;97708.72;;;11.77;61.99
16461;BME280;8341;42.048;24.650;2023-02-28T00:06:08;97700.41;;;11.71;62.90
16461;BME280;8341;42.048;24.650;2023-02-28T00:08:36;97684.97;;;11.68;64.07
16461;BME280;8341;42.048;24.650;2023-02-28T00:11:04;97698.72;;;11.74;64.18
16461;BME280;8341;42.048;24.650;2023-02-28T00:13:32;97701.13;;;11.57;64.83
16461;BME280;8341;42.048;24.650;2023-02-28T00:16:03;97699.38;;;11.69;63.90
16461;BME280;8341;42.048;24.650;2023-02-28T00:18:30;97708.66;;;11.62;63.73
16461;BME280;8341;42.048;24.650;2023-02-28T00:20:57;97700.53;;;11.53;64.24
16461;BME280;8341;42.048;24.650;2023-02-28T00:23:24;97700.53;;;11.53;63.75
16461;BME280;8341;42.048;24.650;2023-02-28T00:25:51;97705.69;;;11.51;64.03
16461;BME280;8341;42.048;24.650;2023-02-28T00:28:19;97706.94;;;11.50;63.62
16461;BME280;8341;42.048;24.650;2023-02-28T00:30:46;97703.69;;;11.37;64.50
16461;BME280;8341;42.048;24.650;2023-02-28T00:33:14;97704.03;;;11.30;65.07
16461;BME280;8341;42.048;24.650;2023-02-28T00:35:41;97701.00;;;11.28;64.60
16461;BME280;8341;42.048;24.650;2023-02-28T00:38:08;97695.38;;;11.08;66.79
16461;BME280;8341;42.048;24.650;2023-02-28T00:40:35;97708.22;;;11.16;66.39
16461;BME280;8341;42.048;24.650;2023-02-28T00:43:01;97710.19;;;11.16;66.59
16461;BME280;8341;42.048;24.650;2023-02-28T00:45:29;97716.53;;;11.22;67.85
16461;BME280;8341;42.048;24.650;2023-02-28T00:47:56;97697.31;;;11.16;67.06
16461;BME280;8341;42.048;24.650;2023-02-28T00:50:24;97702.28;;;11.18;66.60
16461;BME280;8341;42.048;24.650;2023-02-28T00:52:51;97707.00;;;11.17;67.60
16461;BME280;8341;42.048;24.650;2023-02-28T00:55:18;97721.22;;;11.21;67.06
16461;BME280;8341;42.048;24.650;2023-02-28T00:57:45;97709.00;;;11.17;70.07
16461;BME280;8341;42.048;24.650;2023-02-28T01:00:12;97713.63;;;11.25;70.55
16461;BME280;8341;42.048;24.650;2023-02-28T01:02:39;97724.66;;;11.31;70.37
16461;BME280;8341;42.048;24.650;2023-02-28T01:05:07;97715.69;;;11.30;69.22
16461;BME280;8341;42.048;24.650;2023-02-28T01:07:35;97708.84;;;11.35;69.06
16461;BME280;8341;42.048;24.650;2023-02-28T01:10:02;97717.78;;;11.36;68.72
16461;BME280;8341;42.048;24.650;2023-02-28T01:12:29;97724.00;;;11.36;68.39
16461;BME280;8341;42.048;24.650;2023-02-28T01:14:56;97725.34;;;11.41;67.41
16461;BME280;8341;42.048;24.650;2023-02-28T01:17:23;97729.34;;;11.30;67.12
16461;BME280;8341;42.048;24.650;2023-02-28T01:19:53;97721.34;;;11.27;67.88
16461;BME280;8341;42.048;24.650;2023-02-28T01:22:20;97711.38;;;11.24;68.59
16461;BME280;8341;42.048;24.650;2023-02-28T01:24:48;97715.91;;;11.27;68.76
16461;BME280;8341;42.048;24.650;2023-02-28T01:27:14;97702.53;;;11.29;68.60
16461;BME280;8341;42.048;24.650;2023-02-28T01:29:41;97702.50;;;11.05;68.94
16461;BME280;8341;42.048;24.650;2023-02-28T01:32:08;97701.00;;;10.81;69.29
16461;BME280;8341;42.048;24.650;2023-02-28T01:34:35;97709.19;;;10.72;69.38
16461;BME280;8341;42.048;24.650;2023-02-28T01:37:01;97707.94;;;10.49;70.40
16461;BME280;8341;42.048;24.650;2023-02-28T01:39:29;97712.66;;;10.30;70.87
16461;BME280;8341;42.048;24.650;2023-02-28T01:41:57;97724.81;;;10.11;73.15
16461;BME280;8341;42.048;24.650;2023-02-28T01:44:56;97732.53;;;10.03;73.94
16461;BME280;8341;42.048;24.650;2023-02-28T01:47:26;97719.38;;;9.84;74.90
16461;BME280;8341;42.048;24.650;2023-02-28T01:49:54;97734.50;;;9.94;74.42
16461;BME280;8341;42.048;24.650;2023-02-28T01:52:22;97738.75;;;9.86;75.24
16461;BME280;8341;42.048;24.650;2023-02-28T01:54:52;97739.38;;;9.81;75.34
16461;BME280;8341;42.048;24.650;2023-02-28T01:57:24;97743.16;;;9.83;75.20
16461;BME280;8341;42.048;24.650;2023-02-28T01:59:55;97755.38;;;9.79;75.26
16461;BME280;8341;42.048;24.650;2023-02-28T02:02:25;97757.66;;;9.71;75.42
16461;BME280;8341;42.048;24.650;2023-02-28T02:04:55;97765.84;;;9.80;75.39
16461;BME280;8341;42.048;24.650;2023-02-28T02:07:23;97763.84;;;9.99;74.55
16461;BME280;8341;42.048;24.650;2023-02-28T02:10:00;97770.22;;;9.96;73.87
16461;BME280;8341;42.048;24.650;2023-02-28T02:12:38;97772.03;;;9.90;74.67
16461;BME280;8341;42.048;24.650;2023-02-28T02:15:16;97766.91;;;10.01;74.41
16461;BME280;8341;42.048;24.650;2023-02-28T02:17:45;97754.78;;;10.02;73.14
16461;BME280;8341;42.048;24.650;2023-02-28T02:20:56;97768.13;;;10.09;72.77
16461;BME280;8341;42.048;24.650;2023-02-28T02:24:11;97771.44;;;9.77;73.82
16461;BME280;8341;42.048;24.650;2023-02-28T02:27:03;97774.91;;;9.86;73.55
16461;BME280;8341;42.048;24.650;2023-02-28T02:32:41;97782.63;;;9.97;73.58
16461;BME280;8341;42.048;24.650;2023-02-28T02:35:16;97766.28;;;9.97;72.76
16461;BME280;8341;42.048;24.650;2023-02-28T02:37:50;97774.47;;;9.88;72.52
16461;BME280;8341;42.048;24.650;2023-02-28T02:40:19;97788.38;;;9.90;72.17
16461;BME280;8341;42.048;24.650;2023-02-28T02:42:51;97781.75;;;9.91;73.29
16461;BME280;8341;42.048;24.650;2023-02-28T02:45:25;97786.72;;;9.83;73.55
16461;BME280;8341;42.048;24.650;2023-02-28T02:47:56;97790.19;;;9.84;73.36
16461;BME280;8341;42.048;24.650;2023-02-28T02:50:30;97800.81;;;9.91;73.87
16461;BME280;8341;42.048;24.650;2023-02-28T02:53:00;97798.09;;;9.91;73.48
16461;BME280;8341;42.048;24.650;2023-02-28T02:55:29;97807.72;;;9.74;75.05
16461;BME280;8341;42.048;24.650;2023-02-28T02:58:00;97802.00;;;9.63;76.24
16461;BME280;8341;42.048;24.650;2023-02-28T03:00:33;97806.69;;;9.80;75.81
16461;BME280;8341;42.048;24.650;2023-02-28T03:03:02;97813.66;;;9.90;74.45
16461;BME280;8341;42.048;24.650;2023-02-28T03:05:35;97810.94;;;9.90;74.24
16461;BME280;8341;42.048;24.650;2023-02-28T03:08:06;97821.66;;;9.94;74.69
16461;BME280;8341;42.048;24.650;2023-02-28T03:10:36;97824.41;;;9.94;73.67
16461;BME280;8341;42.048;24.650;2023-02-28T03:13:16;97825.94;;;9.86;74.33
16461;BME280;8341;42.048;24.650;2023-02-28T03:15:58;97824.06;;;9.65;75.44
16461;BME280;8341;42.048;24.650;2023-02-28T03:18:33;97817.09;;;9.55;76.10
16461;BME280;8341;42.048;24.650;2023-02-28T03:21:11;97834.38;;;9.70;75.83
16461;BME280;8341;42.048;24.650;2023-02-28T03:23:48;97830.75;;;9.73;74.95
16461;BME280;8341;42.048;24.650;2023-02-28T03:26:21;97838.91;;;9.73;74.79
16461;BME280;8341;42.048;24.650;2023-02-28T03:28:53;97835.56;;;9.69;75.29
16461;BME280;8341;42.048;24.650;2023-02-28T03:31:28;97837.25;;;9.75;74.97
16461;BME280;8341;42.048;24.650;2023-02-28T03:34:01;97832.09;;;9.68;74.81
16461;BME280;8341;42.048;24.650;2023-02-28T03:36:33;97838.59;;;9.13;78.59
16461;BME280;8341;42.048;24.650;2023-02-28T03:39:08;97819.66;;;9.09;78.05
16461;BME280;8341;42.048;24.650;2023-02-28T03:41:38;97836.34;;;9.20;77.62
16461;BME280;8341;42.048;24.650;2023-02-28T03:44:10;97837.09;;;9.21;78.07
16461;BME280;8341;42.048;24.650;2023-02-28T03:46:44;97837.75;;;9.34;77.41
16461;BME280;8341;42.048;24.650;2023-02-28T03:49:16;97820.91;;;9.17;77.13
16461;BME280;8341;42.048;24.650;2023-02-28T03:51:46;97840.44;;;9.25;77.77
16461;BME280;8341;42.048;24.650;2023-02-28T03:54:16;97854.97;;;9.31;76.87
16461;BME280;8341;42.048;24.650;2023-02-28T03:56:49;97861.63;;;9.30;77.98
16461;BME280;8341;42.048;24.650;2023-02-28T03:59:21;97853.19;;;9.37;77.52
16461;BME280;8341;42.048;24.650;2023-02-28T04:01:51;97864.69;;;9.41;77.50
16461;BME280;8341;42.048;24.650;2023-02-28T04:04:18;97867.28;;;9.44;77.25
16461;BME280;8341;42.048;24.650;2023-02-28T04:06:49;97867.41;;;9.32;77.55
16461;BME280;8341;42.048;24.650;2023-02-28T04:09:16;97874.06;;;9.40;76.99
16461;BME280;8341;42.048;24.650;2023-02-28T04:11:44;97869.19;;;9.35;76.04
16461;BME280;8341;42.048;24.650;2023-02-28T04:14:12;97883.25;;;9.33;76.41
16461;BME280;8341;42.048;24.650;2023-02-28T04:16:40;97874.34;;;9.33;76.95
16461;BME280;8341;42.048;24.650;2023-02-28T04:19:08;97875.56;;;9.32;76.94
16461;BME280;8341;42.048;24.650;2023-02-28T04:21:37;97877.81;;;9.33;77.47
16461;BME280;8341;42.048;24.650;2023-02-28T04:24:08;97878.00;;;9.39;77.69
16461;BME280;8341;42.048;24.650;2023-02-28T04:26:40;97881.03;;;9.41;77.30
16461;BME280;8341;42.048;24.650;2023-02-28T04:29:09;97878.31;;;9.50;76.48
16461;BME280;8341;42.048;24.650;2023-02-28T04:31:36;97871.97;;;9.44;76.73
16461;BME280;8341;42.048;24.650;2023-02-28T04:34:03;97869.41;;;9.50;76.92
16461;BME280;8341;42.048;24.650;2023-02-28T04:36:30;97871.63;;;9.33;79.03
16461;BME280;8341;42.048;24.650;2023-02-28T04:38:57;97866.41;;;8.86;82.91
16461;BME280;8341;42.048;24.650;2023-02-28T04:41:26;97879.38;;;8.82;83.13
16461;BME280;8341;42.048;24.650;2023-02-28T04:43:52;97882.09;;;9.04;82.11
16461;BME280;8341;42.048;24.650;2023-02-28T04:46:20;97873.59;;;9.02;79.03
16461;BME280;8341;42.048;24.650;2023-02-28T04:48:46;97884.06;;;9.12;77.56
16461;BME280;8341;42.048;24.650;2023-02-28T04:51:15;97875.50;;;8.92;79.75
16461;BME280;8341;42.048;24.650;2023-02-28T04:53:42;97874.81;;;8.79;82.86
16461;BME280;8341;42.048;24.650;2023-02-28T04:56:12;97876.53;;;8.86;80.82
16461;BME280;8341;42.048;24.650;2023-02-28T04:58:40;97868.81;;;8.84;79.75
16461;BME280;8341;42.048;24.650;2023-02-28T05:01:18;97880.75;;;8.87;79.34
16461;BME280;8341;42.048;24.650;2023-02-28T05:03:45;97879.56;;;8.88;80.08
16461;BME280;8341;42.048;24.650;2023-02-28T05:06:13;97884.25;;;8.87;79.89
16461;BME280;8341;42.048;24.650;2023-02-28T05:08:40;97882.97;;;8.79;82.33
16461;BME280;8341;42.048;24.650;2023-02-28T05:11:13;97884.50;;;8.80;82.24
16461;BME280;8341;42.048;24.650;2023-02-28T05:13:42;97891.38;;;8.94;81.24
16461;BME280;8341;42.048;24.650;2023-02-28T05:16:08;97896.31;;;8.86;81.96
16461;BME280;8341;42.048;24.650;2023-02-28T05:18:35;97907.16;;;8.77;81.40
16461;BME280;8341;42.048;24.650;2023-02-28T05:21:02;97903.72;;;8.64;83.69
16461;BME280;8341;42.048;24.650;2023-02-28T05:28:40;97916.06;;;8.77;84.86
16461;BME280;8341;42.048;24.650;2023-02-28T05:31:10;97917.75;;;8.84;83.37
16461;BME280;8341;42.048;24.650;2023-02-28T05:33:37;97924.59;;;8.89;83.61
16461;BME280;8341;42.048;24.650;2023-02-28T05:36:05;97929.53;;;9.03;82.48
16461;BME280;8341;42.048;24.650;2023-02-28T05:38:32;97931.53;;;9.11;82.00
16461;BME280;8341;42.048;24.650;2023-02-28T05:40:59;97938.50;;;9.12;80.43
16461;BME280;8341;42.048;24.650;2023-02-28T05:43:26;97950.69;;;9.29;80.16
16461;BME280;8341;42.048;24.650;2023-02-28T05:45:53;97951.63;;;9.35;79.84
16461;BME280;8341;42.048;24.650;2023-02-28T05:48:21;97958.19;;;9.47;79.79
16461;BME280;8341;42.048;24.650;2023-02-28T05:50:48;97952.00;;;9.56;81.18
16461;BME280;8341;42.048;24.650;2023-02-28T05:53:15;97951.59;;;9.66;82.38
16461;BME280;8341;42.048;24.650;2023-02-28T05:55:41;97946.75;;;9.61;80.86
16461;BME280;8341;42.048;24.650;2023-02-28T05:58:08;97945.84;;;9.64;80.49
16461;BME280;8341;42.048;24.650;2023-02-28T06:00:35;97958.94;;;9.78;79.49
16461;BME280;8341;42.048;24.650;2023-02-28T06:03:02;97952.13;;;9.83;77.59
16461;BME280;8341;42.048;24.650;2023-02-28T06:05:30;97960.78;;;9.99;76.59
16461;BME280;8341;42.048;24.650;2023-02-28T06:07:56;97968.75;;;10.16;75.17
16461;BME280;8341;42.048;24.650;2023-02-28T06:10:23;97966.94;;;10.22;74.91
16461;BME280;8341;42.048;24.650;2023-02-28T06:12:50;97968.16;;;10.21;75.56
16461;BME280;8341;42.048;24.650;2023-02-28T06:15:17;97965.59;;;10.35;75.61
16461;BME280;8341;42.048;24.650;2023-02-28T06:17:44;97966.22;;;10.39;75.53
16461;BME280;8341;42.048;24.650;2023-02-28T06:20:11;97966.84;;;10.52;75.14
16461;BME280;8341;42.048;24.650;2023-02-28T06:22:40;97969.25;;;10.59;74.79
16461;BME280;8341;42.048;24.650;2023-02-28T06:25:09;97965.31;;;10.60;75.34
16461;BME280;8341;42.048;24.650;2023-02-28T06:27:36;97964.34;;;10.18;84.17
16461;BME280;8341;42.048;24.650;2023-02-28T06:30:04;97979.50;;;9.79;89.97
16461;BME280;8341;42.048;24.650;2023-02-28T06:32:31;97984.22;;;9.88;89.92
16461;BME280;8341;42.048;24.650;2023-02-28T06:34:57;97982.34;;;9.76;92.01
16461;BME280;8341;42.048;24.650;2023-02-28T06:37:24;97970.00;;;9.93;91.60
16461;BME280;8341;42.048;24.650;2023-02-28T06:39:54;97958.34;;;9.92;89.96
16461;BME280;8341;42.048;24.650;2023-02-28T06:42:21;97971.25;;;10.10;91.07
16461;BME280;8341;42.048;24.650;2023-02-28T06:44:50;97971.09;;;10.04;91.08
16461;BME280;8341;42.048;24.650;2023-02-28T06:47:17;97963.09;;;10.01;90.74
16461;BME280;8341;42.048;24.650;2023-02-28T06:49:44;97979.50;;;10.19;91.15
16461;BME280;8341;42.048;24.650;2023-02-28T06:52:11;97976.66;;;10.41;89.54
16461;BME280;8341;42.048;24.650;2023-02-28T06:54:37;97988.31;;;10.50;88.41
16461;BME280;8341;42.048;24.650;2023-02-28T06:57:06;97982.81;;;10.14;90.11
16461;BME280;8341;42.048;24.650;2023-02-28T06:59:33;97977.72;;;10.34;89.89
16461;BME280;8341;42.048;24.650;2023-02-28T07:02:00;97982.44;;;10.52;88.65
16461;BME280;8341;42.048;24.650;2023-02-28T07:04:27;97984.72;;;10.04;92.26
16461;BME280;8341;42.048;24.650;2023-02-28T07:06:54;97971.44;;;10.06;93.64
16461;BME280;8341;42.048;24.650;2023-02-28T07:09:23;97983.00;;;10.38;92.00
16461;BME280;8341;42.048;24.650;2023-02-28T07:11:55;97984.53;;;10.66;90.41
16461;BME280;8341;42.048;24.650;2023-02-28T07:14:23;97983.19;;;10.80;88.11
16461;BME280;8341;42.048;24.650;2023-02-28T07:16:50;97980.59;;;10.94;87.60
16461;BME280;8341;42.048;24.650;2023-02-28T07:19:17;97986.81;;;11.13;86.30
16461;BME280;8341;42.048;24.650;2023-02-28T07:21:43;97983.31;;;11.12;86.24
16461;BME280;8341;42.048;24.650;2023-02-28T07:24:10;97987.13;;;11.06;86.58
16461;BME280;8341;42.048;24.650;2023-02-28T07:26:37;97978.91;;;11.24;85.96
16461;BME280;8341;42.048;24.650;2023-02-28T07:29:04;97984.94;;;11.37;84.98
16461;BME280;8341;42.048;24.650;2023-02-28T07:31:32;97979.78;;;11.30;84.76
16461;BME280;8341;42.048;24.650;2023-02-28T07:33:59;97990.28;;;11.31;85.65
16461;BME280;8341;42.048;24.650;2023-02-28T07:36:26;97988.56;;;11.43;84.94
16461;BME280;8341;42.048;24.650;2023-02-28T07:38:52;97990.59;;;11.15;85.89
16461;BME280;8341;42.048;24.650;2023-02-28T07:41:21;97991.69;;;11.09;86.44
16461;BME280;8341;42.048;24.650;2023-02-28T07:43:49;97993.19;;;10.64;89.85
16461;BME280;8341;42.048;24.650;2023-02-28T07:46:16;97988.34;;;10.68;90.34
16461;BME280;8341;42.048;24.650;2023-02-28T07:48:47;97986.84;;;10.67;90.13
16461;BME280;8341;42.048;24.650;2023-02-28T07:51:13;97988.84;;;10.09;94.16
16461;BME280;8341;42.048;24.650;2023-02-28T07:53:40;97992.69;;;10.30;94.25
16461;BME280;8341;42.048;24.650;2023-02-28T07:56:07;97985.16;;;10.52;93.58
16461;BME280;8341;42.048;24.650;2023-02-28T07:58:36;97996.63;;;10.38;93.46
16461;BME280;8341;42.048;24.650;2023-02-28T08:01:06;97995.16;;;10.55;91.98
16461;BME280;8341;42.048;24.650;2023-02-28T08:03:34;98006.84;;;10.83;91.54
16461;BME280;8341;42.048;24.650;2023-02-28T08:06:02;98010.44;;;11.25;87.71
16461;BME280;8341;42.048;24.650;2023-02-28T08:08:29;98006.81;;;11.10;87.28
16461;BME280;8341;42.048;24.650;2023-02-28T08:10:58;98008.44;;;11.44;85.68
16461;BME280;8341;42.048;24.650;2023-02-28T08:13:26;98013.94;;;11.25;85.25
16461;BME280;8341;42.048;24.650;2023-02-28T08:15:53;98018.06;;;11.03;87.36
16461;BME280;8341;42.048;24.650;2023-02-28T08:18:20;98009.56;;;11.10;87.29
16461;BME280;8341;42.048;24.650;2023-02-28T08:20:47;98016.25;;;10.91;88.27
16461;BME280;8341;42.048;24.650;2023-02-28T08:23:15;98017.44;;;11.08;87.38
16461;BME280;8341;42.048;24.650;2023-02-28T08:25:42;98015.78;;;10.83;89.50
16461;BME280;8341;42.048;24.650;2023-02-28T08:28:09;98014.25;;;11.18;86.78
16461;BME280;8341;42.048;24.650;2023-02-28T08:30:36;98011.66;;;11.15;86.04
16461;BME280;8341;42.048;24.650;2023-02-28T08:33:03;98019.72;;;11.00;85.62
16461;BME280;8341;42.048;24.650;2023-02-28T08:35:30;98016.22;;;10.54;89.22
16461;BME280;8341;42.048;24.650;2023-02-28T08:37:57;98022.53;;;10.33;90.63
16461;BME280;8341;42.048;24.650;2023-02-28T08:40:25;98022.66;;;10.30;92.01
16461;BME280;8341;42.048;24.650;2023-02-28T08:42:52;98006.94;;;10.34;93.19
16461;BME280;8341;42.048;24.650;2023-02-28T08:45:18;98006.38;;;10.57;89.79
16461;BME280;8341;42.048;24.650;2023-02-28T08:47:45;98001.06;;;10.04;94.06
16461;BME280;8341;42.048;24.650;2023-02-28T08:50:12;98026.88;;;10.13;95.19
16461;BME280;8341;42.048;24.650;2023-02-28T08:52:42;98007.84;;;9.91;97.17
16461;BME280;8341;42.048;24.650;2023-02-28T08:55:09;98027.84;;;9.97;95.77
16461;BME280;8341;42.048;24.650;2023-02-28T08:57:37;98030.84;;;10.21;94.33
16461;BME280;8341;42.048;24.650;2023-02-28T09:00:05;98029.38;;;10.07;96.26
16461;BME280;8341;42.048;24.650;2023-02-28T09:02:33;98029.38;;;10.07;98.11
16461;BME280;8341;42.048;24.650;2023-02-28T09:05:00;98027.63;;;10.13;96.00
16461;BME280;8341;42.048;24.650;2023-02-28T09:07:28;98035.13;;;10.40;95.06
16461;BME280;8341;42.048;24.650;2023-02-28T09:09:57;98026.56;;;10.20;94.56
16461;BME280;8341;42.048;24.650;2023-02-28T09:12:25;98019.50;;;10.31;94.47
16461;BME280;8341;42.048;24.650;2023-02-28T09:14:54;98022.94;;;10.14;96.01
16461;BME280;8341;42.048;24.650;2023-02-28T09:17:21;98021.66;;;10.54;93.91
16461;BME280;8341;42.048;24.650;2023-02-28T09:19:48;98022.31;;;10.86;91.00
16461;BME280;8341;42.048;24.650;2023-02-28T09:22:15;97998.81;;;10.70;90.98
16461;BME280;8341;42.048;24.650;2023-02-28T09:24:42;98007.75;;;10.89;91.02
16461;BME280;8341;42.048;24.650;2023-02-28T09:27:09;98005.75;;;11.35;88.12
16461;BME280;8341;42.048;24.650;2023-02-28T09:29:36;98009.22;;;11.26;87.84
16461;BME280;8341;42.048;24.650;2023-02-28T09:32:05;98007.47;;;11.74;84.37
16461;BME280;8341;42.048;24.650;2023-02-28T09:34:32;98003.31;;;11.97;82.22
16461;BME280;8341;42.048;24.650;2023-02-28T09:36:59;98006.47;;;12.04;80.91
16461;BME280;8341;42.048;24.650;2023-02-28T09:39:26;98012.88;;;12.25;79.60
16461;BME280;8341;42.048;24.650;2023-02-28T09:41:56;98011.28;;;12.33;78.88
16461;BME280;8341;42.048;24.650;2023-02-28T09:44:27;98023.19;;;12.30;77.80
16461;BME280;8341;42.048;24.650;2023-02-28T09:46:57;97998.38;;;11.68;81.36
16461;BME280;8341;42.048;24.650;2023-02-28T09:49:40;98003.72;;;12.28;79.93
16461;BME280;8341;42.048;24.650;2023-02-28T09:52:10;98003.22;;;11.64;83.35
16461;BME280;8341;42.048;24.650;2023-02-28T09:54:38;97994.63;;;11.47;85.08
16461;BME280;8341;42.048;24.650;2023-02-28T09:57:08;97984.28;;;11.60;83.78
16461;BME280;8341;42.048;24.650;2023-02-28T09:59:47;97984.09;;;11.64;84.30
16461;BME280;8341;42.048;24.650;2023-02-28T10:02:28;97987.28;;;10.57;91.63
16461;BME280;8341;42.048;24.650;2023-02-28T10:05:07;97989.53;;;11.22;89.49
16461;BME280;8341;42.048;24.650;2023-02-28T10:07:47;97975.13;;;11.63;85.32
16461;BME280;8341;42.048;24.650;2023-02-28T10:10:21;97976.13;;;11.42;86.01
16461;BME280;8341;42.048;24.650;2023-02-28T10:12:52;97970.88;;;11.80;84.68
16461;BME280;8341;42.048;24.650;2023-02-28T10:15:21;97975.59;;;11.02;89.30
16461;BME280;8341;42.048;24.650;2023-02-28T10:17:53;97954.34;;;11.24;88.46
16461;BME280;8341;42.048;24.650;2023-02-28T10:20:23;97953.09;;;11.85;85.31
16461;BME280;8341;42.048;24.650;2023-02-28T10:22:58;97940.75;;;11.89;83.64
16461;BME280;8341;42.048;24.650;2023-02-28T10:25:34;97958.69;;;11.90;83.44
16461;BME280;8341;42.048;24.650;2023-02-28T10:28:09;97962.38;;;11.78;84.66
16461;BME280;8341;42.048;24.650;2023-02-28T10:30:39;97966.03;;;11.75;82.92
16461;BME280;8341;42.048;24.650;2023-02-28T10:33:15;97952.13;;;11.55;85.29
16461;BME280;8341;42.048;24.650;2023-02-28T10:35:46;97959.19;;;11.80;84.17
16461;BME280;8341;42.048;24.650;2023-02-28T10:38:16;97963.84;;;11.88;83.76
16461;BME280;8341;42.048;24.650;2023-02-28T10:40:43;97959.66;;;12.35;80.43
16461;BME280;8341;42.048;24.650;2023-02-28T10:43:20;97958.16;;;12.48;78.88
16461;BME280;8341;42.048;24.650;2023-02-28T10:45:57;97958.00;;;12.52;78.11
16461;BME280;8341;42.048;24.650;2023-02-28T10:48:29;97967.72;;;12.53;78.04
16461;BME280;8341;42.048;24.650;2023-02-28T10:50:58;97960.31;;;12.21;78.56
16461;BME280;8341;42.048;24.650;2023-02-28T10:53:31;97953.22;;;11.90;81.92
16461;BME280;8341;42.048;24.650;2023-02-28T10:56:01;97942.63;;;11.83;82.38
16461;BME280;8341;42.048;24.650;2023-02-28T10:58:29;97935.97;;;11.66;83.86
16461;BME280;8341;42.048;24.650;2023-02-28T11:00:58;97943.16;;;11.55;83.91
16461;BME280;8341;42.048;24.650;2023-02-28T11:03:35;97943.38;;;11.42;85.10
16461;BME280;8341;42.048;24.650;2023-02-28T11:06:07;97918.31;;;10.84;88.70
16461;BME280;8341;42.048;24.650;2023-02-28T11:08:48;97933.50;;;10.76;90.72
16461;BME280;8341;42.048;24.650;2023-02-28T11:11:16;97934.41;;;10.73;91.71
16461;BME280;8341;42.048;24.650;2023-02-28T11:13:44;97941.03;;;10.90;90.49
16461;BME280;8341;42.048;24.650;2023-02-28T11:16:13;97934.84;;;10.53;92.26
16461;BME280;8341;42.048;24.650;2023-02-28T11:18:43;97936.81;;;10.80;91.50
16461;BME280;8341;42.048;24.650;2023-02-28T11:21:19;97941.97;;;10.50;93.28
16461;BME280;8341;42.048;24.650;2023-02-28T11:23:49;97936.59;;;10.11;97.11
16461;BME280;8341;42.048;24.650;2023-02-28T11:26:35;97940.75;;;10.24;96.43
16461;BME280;8341;42.048;24.650;2023-02-28T11:29:10;97933.31;;;10.16;96.36
16461;BME280;8341;42.048;24.650;2023-02-28T11:31:38;97945.50;;;10.02;99.84
16461;BME280;8341;42.048;24.650;2023-02-28T11:34:23;97930.44;;;10.19;97.83
16461;BME280;8341;42.048;24.650;2023-02-28T11:36:51;97944.91;;;10.07;97.79
16461;BME280;8341;42.048;24.650;2023-02-28T11:39:19;97934.13;;;9.94;100.00
16461;BME280;8341;42.048;24.650;2023-02-28T11:42:04;97941.41;;;9.88;100.00
16461;BME280;8341;42.048;24.650;2023-02-28T11:44:43;97933.53;;;9.90;100.00
16461;BME280;8341;42.048;24.650;2023-02-28T11:47:15;97918.88;;;10.06;99.30
16461;BME280;8341;42.048;24.650;2023-02-28T11:49:50;97932.25;;;10.13;98.55
16461;BME280;8341;42.048;24.650;2023-02-28T11:52:33;97914.09;;;10.19;97.22
16461;BME280;8341;42.048;24.650;2023-02-28T11:55:14;97935.13;;;10.28;97.18
16461;BME280;8341;42.048;24.650;2023-02-28T11:58:05;97930.16;;;10.44;95.42
16461;BME280;8341;42.048;24.650;2023-02-28T12:00:43;97930.16;;;10.53;94.25
16461;BME280;8341;42.048;24.650;2023-02-28T12:03:22;97922.56;;;10.21;96.09
16461;BME280;8341;42.048;24.650;2023-02-28T12:05:58;97923.19;;;10.34;95.55
16461;BME280;8341;42.048;24.650;2023-02-28T12:08:42;97927.59;;;10.50;94.41
16461;BME280;8341;42.048;24.650;2023-02-28T12:11:14;97932.91;;;10.62;93.88
16461;BME280;8341;42.048;24.650;2023-02-28T12:13:50;97931.97;;;10.56;93.43
16461;BME280;8341;42.048;24.650;2023-02-28T12:16:38;97926.84;;;10.49;95.14
16461;BME280;8341;42.048;24.650;2023-02-28T12:19:19;97926.53;;;10.56;95.68
16461;BME280;8341;42.048;24.650;2023-02-28T12:22:00;97908.34;;;10.62;95.58
16461;BME280;8341;42.048;24.650;2023-02-28T12:27:43;97921.38;;;10.67;94.81
16461;BME280;8341;42.048;24.650;2023-02-28T12:30:16;97915.44;;;10.69;94.66
16461;BME280;8341;42.048;24.650;2023-02-28T12:32:47;97920.03;;;10.63;94.94
16461;BME280;8341;42.048;24.650;2023-02-28T12:35:18;97920.47;;;10.61;95.02
16461;BME280;8341;42.048;24.650;2023-02-28T12:37:51;97916.50;;;10.72;94.62
16461;BME280;8341;42.048;24.650;2023-02-28T12:40:23;97915.00;;;10.71;95.03
16461;BME280;8341;42.048;24.650;2023-02-28T12:42:53;97918.66;;;10.67;95.85
16461;BME280;8341;42.048;24.650;2023-02-28T12:45:23;97916.81;;;10.74;96.10
16461;BME280;8341;42.048;24.650;2023-02-28T12:47:54;97914.41;;;10.66;97.79
16461;BME280;8341;42.048;24.650;2023-02-28T12:50:24;97904.69;;;10.75;97.20
16461;BME280;8341;42.048;24.650;2023-02-28T12:52:57;97893.31;;;10.76;97.53
16461;BME280;8341;42.048;24.650;2023-02-28T12:55:30;97902.44;;;10.64;98.50
16461;BME280;8341;42.048;24.650;2023-02-28T12:58:09;97902.28;;;10.58;100.00
16461;BME280;8341;42.048;24.650;2023-02-28T13:00:58;97896.38;;;10.60;100.00
16461;BME280;8341;42.048;24.650;2023-02-28T13:03:42;97903.66;;;10.63;100.00
16461;BME280;8341;42.048;24.650;2023-02-28T13:06:34;97897.44;;;10.35;100.00
16461;BME280;8341;42.048;24.650;2023-02-28T13:09:08;97901.75;;;9.96;100.00
16461;BME280;8341;42.048;24.650;2023-02-28T13:11:39;97895.13;;;10.06;100.00
16461;BME280;8341;42.048;24.650;2023-02-28T13:14:20;97893.19;;;10.16;100.00
16461;BME280;8341;42.048;24.650;2023-02-28T13:16:55;97891.38;;;10.22;100.00
16461;BME280;8341;42.048;24.650;2023-02-28T13:19:23;97892.75;;;10.36;100.00
16461;BME280;8341;42.048;24.650;2023-02-28T13:21:52;97894.09;;;10.40;100.00
16461;BME280;8341;42.048;24.650;2023-02-28T13:24:41;97896.84;;;10.31;100.00
16461;BME280;8341;42.048;24.650;2023-02-28T13:27:21;97896.84;;;10.31;100.00
16461;BME280;8341;42.048;24.650;2023-02-28T13:29:52;97886.53;;;10.26;100.00
16461;BME280;8341;42.048;24.650;2023-02-28T13:32:34;97888.94;;;10.33;100.00